Viking Queen — WDB9919 — position and weather

sailwx.info

Track history (hours):
 
Tides and Currents Weather Stations Pressure Air Temp Water Temp Dewpoint Dewpoint Depression Visibility Wind Speed Wind Dir Waves Ship Positions

Viking Queen

Owner: American River Transportation Company, St Louis, MO. More information available from US FCC via Universal Licensing System and Coast Guard Vessel Documentation Center.

Last reported at 2014-Oct-01 11:33 UTC. Time now 2014-Oct-01 22:23 UTC.
Position N 29°57' W 090°19'.

Length 55 m; draft 3.2 m.

Type: Towing. MMSI: 366985050.

Date/timePositionNaut miles runAvg speedWind from/ knotsBaromVisibWave heightAir tempDewpointWater temp
2014-Oct-01 11:33N 29°57' W 090°19'0 0.0
2014-Oct-01 10:34N 29°57' W 090°19'0 0.0
2014-Oct-01 09:33N 29°57' W 090°19'0 0.0
2014-Oct-01 08:33N 29°57' W 090°19'5 4.6
2014-Oct-01 07:33N 29°58' W 090°24'6 6.3
2014-Oct-01 06:34N 30°03' W 090°29'7 7.3
2014-Oct-01 05:34N 30°02' W 090°37'6 5.8
2014-Oct-01 04:33N 30°01' W 090°44'5 5.4
2014-Oct-01 03:33N 30°01' W 090°50'9 6.2
2014-Oct-01 02:05N 30°08' W 090°57'  
Track history (hours):
 
Tides and Currents Weather Stations Pressure Air Temp Water Temp Dewpoint Dewpoint Depression Visibility Wind Speed Wind Dir Waves Ship Positions

Viking Queen

Owner: American River Transportation Company, St Louis, MO. More information available from US FCC via Universal Licensing System and Coast Guard Vessel Documentation Center.

Last reported at 2014-Oct-01 11:33 UTC. Time now 2014-Oct-01 22:23 UTC.
Position N 29°57' W 090°19'.

Length 55 m; draft 3.2 m.

Type: Towing. MMSI: 366985050.

Date/timePositionNaut miles runAvg speedWind from/ knotsBaromVisibWave heightAir tempDewpointWater temp
2014-Oct-01 11:33N 29°57' W 090°19'0 0.0
2014-Oct-01 10:34N 29°57' W 090°19'0 0.0
2014-Oct-01 09:33N 29°57' W 090°19'0 0.0
2014-Oct-01 08:33N 29°57' W 090°19'5 4.6
2014-Oct-01 07:33N 29°58' W 090°24'6 6.3
2014-Oct-01 06:34N 30°03' W 090°29'7 7.3
2014-Oct-01 05:34N 30°02' W 090°37'6 5.8
2014-Oct-01 04:33N 30°01' W 090°44'5 5.4
2014-Oct-01 03:33N 30°01' W 090°50'9 6.2
2014-Oct-01 02:05N 30°08' W 090°57'  

Dump ship's entire track history